SAS864 EDDH-EHAM
Flight info
| Callsign | SAS864 |
|---|---|
| Flight time | N/A |
| Altitude | 26000 |
| Route | WSN5C WSN N125 ITMIZ DCT BLUFA |
| Aircraft | A359/H-SDE2E3GHIJ1J3J4J5LM1ORWXY/LB1D1 |
Departure
| Time | 2026-04-21 09:49 |
|---|---|
| Airport | Hamburg Helmut Schmidt Airport (EDDH) |
Arrival
| Time | N/A |
|---|---|
| Airport | Amsterdam Airport Schiphol (EHAM) |
| Time | Latitude | Longitude | Altitude | Speed | Heading |
|---|---|---|---|---|---|
| 2026-04-21 09:29 | 53.62946 | 10.00277 | 49 ft | 0 kts | 122° |
| 2026-04-21 09:30 | 53.62947 | 10.00277 | 49 ft | 0 kts | 122° |
| 2026-04-21 09:33 | 53.62958 | 10.00246 | 49 ft | 4 kts | 122° |
| 2026-04-21 09:33 | 53.62973 | 10.00207 | 49 ft | 4 kts | 122° |
| 2026-04-21 09:33 | 53.62986 | 10.00172 | 49 ft | 4 kts | 107° |
| 2026-04-21 09:34 | 53.62989 | 10.00146 | 49 ft | 4 kts | 59° |
| 2026-04-21 09:34 | 53.62979 | 10.00127 | 49 ft | 3 kts | 33° |
| 2026-04-21 09:34 | 53.62958 | 10.00103 | 49 ft | 2 kts | 33° |
| 2026-04-21 09:34 | 53.62956 | 10.00102 | 49 ft | 1 kts | 33° |
| 2026-04-21 09:45 | 53.62960 | 10.00106 | 57 ft | 4 kts | 33° |
| 2026-04-21 09:45 | 53.63021 | 10.00174 | 49 ft | 16 kts | 31° |
| 2026-04-21 09:45 | 53.63140 | 10.00220 | 55 ft | 20 kts | 357° |
| 2026-04-21 09:46 | 53.63262 | 10.00208 | 52 ft | 17 kts | 356° |
| 2026-04-21 09:46 | 53.63344 | 10.00197 | 52 ft | 8 kts | 355° |
| 2026-04-21 09:46 | 53.63409 | 10.00189 | 50 ft | 11 kts | 356° |
| 2026-04-21 09:46 | 53.63464 | 10.00182 | 53 ft | 3 kts | 356° |
| 2026-04-21 09:47 | 53.63491 | 10.00170 | 53 ft | 5 kts | 333° |
| 2026-04-21 09:47 | 53.63530 | 10.00127 | 50 ft | 8 kts | 321° |
| 2026-04-21 09:47 | 53.63582 | 10.00054 | 49 ft | 11 kts | 319° |
| 2026-04-21 09:47 | 53.63580 | 9.99943 | 49 ft | 12 kts | 246° |
| 2026-04-21 09:48 | 53.63526 | 9.99815 | 49 ft | 15 kts | 231° |
| 2026-04-21 09:48 | 53.63437 | 9.99632 | 53 ft | 34 kts | 230° |
| 2026-04-21 09:48 | 53.63132 | 9.99017 | 52 ft | 106 kts | 230° |
| 2026-04-21 09:48 | 53.62508 | 9.97760 | 51 ft | 172 kts | 230° |
| 2026-04-21 09:49 | 53.61694 | 9.96137 | 612 ft | 186 kts | 230° |
| 2026-04-21 09:49 | 53.60868 | 9.94455 | 1499 ft | 189 kts | 231° |
| 2026-04-21 09:49 | 53.59985 | 9.92595 | 2043 ft | 216 kts | 231° |
| 2026-04-21 09:49 | 53.59016 | 9.90575 | 2988 ft | 226 kts | 229° |
| 2026-04-21 09:50 | 53.58007 | 9.88509 | 3960 ft | 229 kts | 229° |
| 2026-04-21 09:50 | 53.57665 | 9.87813 | 4288 ft | 230 kts | 229° |
| 2026-04-21 09:50 | 53.55396 | 9.81054 | 5995 ft | 277 kts | 247° |
| 2026-04-21 09:51 | 53.54673 | 9.77999 | 6879 ft | 284 kts | 249° |
| 2026-04-21 09:51 | 53.53987 | 9.74864 | 7830 ft | 288 kts | 250° |
| 2026-04-21 09:51 | 53.53312 | 9.71659 | 8788 ft | 294 kts | 250° |
| 2026-04-21 09:51 | 53.52630 | 9.68394 | 9801 ft | 299 kts | 250° |
| 2026-04-21 09:52 | 53.51928 | 9.65056 | 10708 ft | 307 kts | 250° |
| 2026-04-21 09:52 | 53.50674 | 9.59148 | 11397 ft | 348 kts | 250° |
| 2026-04-21 09:52 | 53.47127 | 9.42795 | 14436 ft | 387 kts | 249° |
| 2026-04-21 09:52 | 53.43335 | 9.25445 | 17755 ft | 406 kts | 249° |
| 2026-04-21 09:53 | 53.39322 | 9.07241 | 20726 ft | 426 kts | 249° |
| 2026-04-21 09:53 | 53.35090 | 8.88231 | 23619 ft | 445 kts | 249° |
| 2026-04-21 09:53 | 53.30681 | 8.68605 | 25998 ft | 461 kts | 249° |
| 2026-04-21 09:53 | 53.26149 | 8.48608 | 26342 ft | 473 kts | 249° |
| 2026-04-21 09:54 | 53.21997 | 8.26719 | 26343 ft | 501 kts | 253° |
| 2026-04-21 09:54 | 53.17864 | 8.04535 | 26344 ft | 501 kts | 252° |
| 2026-04-21 09:54 | 53.13667 | 7.82392 | 26347 ft | 500 kts | 252° |
| 2026-04-21 09:54 | 53.12145 | 7.74422 | 26349 ft | 500 kts | 252° |
| 2026-04-21 09:55 | 53.11088 | 7.68915 | 26343 ft | 500 kts | 252° |
| 2026-04-21 09:55 | 53.10029 | 7.63402 | 26343 ft | 500 kts | 252° |
| 2026-04-21 09:55 | 53.08960 | 7.57907 | 26343 ft | 499 kts | 252° |
| 2026-04-21 09:55 | 53.07877 | 7.52419 | 26343 ft | 499 kts | 251° |
| 2026-04-21 09:56 | 53.06803 | 7.47019 | 26341 ft | 499 kts | 251° |
| 2026-04-21 09:56 | 53.05710 | 7.41541 | 26344 ft | 499 kts | 251° |
| 2026-04-21 09:56 | 53.04602 | 7.35995 | 26345 ft | 499 kts | 251° |
| 2026-04-21 09:56 | 53.03525 | 7.30609 | 26343 ft | 499 kts | 251° |
| 2026-04-21 09:57 | 53.02429 | 7.25132 | 26344 ft | 498 kts | 251° |
| 2026-04-21 09:57 | 53.01335 | 7.19677 | 26343 ft | 498 kts | 251° |
| 2026-04-21 09:57 | 53.00238 | 7.14221 | 26344 ft | 498 kts | 251° |
| 2026-04-21 09:57 | 52.99141 | 7.08775 | 26344 ft | 498 kts | 251° |
| 2026-04-21 09:58 | 52.98041 | 7.03332 | 26351 ft | 498 kts | 251° |
| 2026-04-21 09:58 | 52.96937 | 6.97892 | 26352 ft | 497 kts | 251° |
| 2026-04-21 09:58 | 52.95830 | 6.92461 | 26353 ft | 497 kts | 251° |
| 2026-04-21 09:58 | 52.94511 | 6.87177 | 26284 ft | 495 kts | 243° |
| 2026-04-21 09:59 | 52.92946 | 6.82100 | 26195 ft | 494 kts | 241° |
| 2026-04-21 09:59 | 52.91332 | 6.77084 | 25761 ft | 492 kts | 241° |
| 2026-04-21 09:59 | 52.89709 | 6.72096 | 24970 ft | 491 kts | 241° |
| 2026-04-21 09:59 | 52.88087 | 6.67136 | 24281 ft | 488 kts | 240° |
| 2026-04-21 10:00 | 52.86478 | 6.62229 | 23568 ft | 483 kts | 240° |
| 2026-04-21 10:00 | 52.84878 | 6.57363 | 22883 ft | 477 kts | 240° |
| 2026-04-21 10:00 | 52.83301 | 6.52576 | 22216 ft | 471 kts | 240° |
| 2026-04-21 10:00 | 52.81741 | 6.47849 | 21587 ft | 465 kts | 240° |
| 2026-04-21 10:01 | 52.80199 | 6.43188 | 20896 ft | 460 kts | 240° |
| 2026-04-21 10:01 | 52.78671 | 6.38573 | 20239 ft | 455 kts | 240° |
| 2026-04-21 10:01 | 52.77155 | 6.34008 | 19582 ft | 451 kts | 240° |
| 2026-04-21 10:01 | 52.75654 | 6.29499 | 18932 ft | 447 kts | 240° |
| 2026-04-21 10:02 | 52.72704 | 6.20658 | 17566 ft | 438 kts | 240° |
| 2026-04-21 10:02 | 52.71243 | 6.16291 | 16924 ft | 432 kts | 240° |
| 2026-04-21 10:02 | 52.69798 | 6.11979 | 16288 ft | 427 kts | 240° |
| 2026-04-21 10:03 | 52.68367 | 6.07716 | 15649 ft | 422 kts | 240° |
| 2026-04-21 10:03 | 52.66952 | 6.03508 | 15017 ft | 418 kts | 240° |
| 2026-04-21 10:03 | 52.65551 | 5.99342 | 14368 ft | 414 kts | 239° |
| 2026-04-21 10:03 | 52.64158 | 5.95216 | 13717 ft | 410 kts | 239° |
| 2026-04-21 10:04 | 52.62780 | 5.91139 | 13092 ft | 404 kts | 239° |
| 2026-04-21 10:04 | 52.61420 | 5.87125 | 12474 ft | 399 kts | 239° |
| 2026-04-21 10:04 | 52.60075 | 5.83163 | 11960 ft | 392 kts | 239° |
| 2026-04-21 10:04 | 52.58776 | 5.79336 | 11829 ft | 374 kts | 239° |
| 2026-04-21 10:05 | 52.57534 | 5.75679 | 11722 ft | 358 kts | 239° |
| 2026-04-21 10:05 | 52.56345 | 5.72188 | 11612 ft | 343 kts | 239° |
| 2026-04-21 10:05 | 52.55205 | 5.68841 | 11493 ft | 330 kts | 239° |
| 2026-04-21 10:05 | 52.54105 | 5.65614 | 11340 ft | 318 kts | 239° |
| 2026-04-21 10:06 | 52.53006 | 5.62405 | 11031 ft | 332 kts | 239° |
| 2026-04-21 10:06 | 52.51847 | 5.59034 | 10637 ft | 343 kts | 239° |
| 2026-04-21 10:06 | 52.50674 | 5.55614 | 10268 ft | 343 kts | 240° |
| 2026-04-21 10:06 | 52.49502 | 5.52273 | 9862 ft | 341 kts | 238° |
| 2026-04-21 10:07 | 52.48282 | 5.48949 | 9462 ft | 338 kts | 237° |
| 2026-04-21 10:07 | 52.47059 | 5.45677 | 9066 ft | 335 kts | 237° |
| 2026-04-21 10:07 | 52.45846 | 5.42455 | 8676 ft | 332 kts | 237° |
| 2026-04-21 10:07 | 52.44634 | 5.39229 | 8293 ft | 330 kts | 237° |
| 2026-04-21 10:08 | 52.43433 | 5.36042 | 7903 ft | 328 kts | 237° |
| 2026-04-21 10:08 | 52.42280 | 5.32989 | 7532 ft | 325 kts | 237° |
| 2026-04-21 10:08 | 52.41093 | 5.29851 | 7145 ft | 323 kts | 237° |
| 2026-04-21 10:08 | 52.39906 | 5.26736 | 6766 ft | 321 kts | 237° |
| 2026-04-21 10:09 | 52.38726 | 5.23641 | 6372 ft | 320 kts | 237° |
| 2026-04-21 10:09 | 52.37549 | 5.20570 | 5981 ft | 317 kts | 237° |
| 2026-04-21 10:09 | 52.36385 | 5.17526 | 5601 ft | 315 kts | 237° |
| 2026-04-21 10:09 | 52.35307 | 5.14720 | 5246 ft | 314 kts | 237° |
| 2026-04-21 10:10 | 52.34146 | 5.11712 | 4837 ft | 311 kts | 237° |
| 2026-04-21 10:10 | 52.32992 | 5.08786 | 4453 ft | 310 kts | 236° |
| 2026-04-21 10:10 | 52.31820 | 5.05808 | 4073 ft | 309 kts | 236° |
| 2026-04-21 10:10 | 52.30660 | 5.02854 | 3698 ft | 307 kts | 237° |
| 2026-04-21 10:11 | 52.29540 | 4.99974 | 3401 ft | 301 kts | 236° |
| 2026-04-21 10:11 | 52.28434 | 4.97146 | 3329 ft | 287 kts | 236° |
| 2026-04-21 10:11 | 52.27381 | 4.94451 | 3342 ft | 279 kts | 236° |
| 2026-04-21 10:11 | 52.26336 | 4.91762 | 3345 ft | 282 kts | 236° |
| 2026-04-21 10:12 | 52.25285 | 4.89056 | 3351 ft | 282 kts | 236° |
| 2026-04-21 10:12 | 52.24229 | 4.86340 | 3346 ft | 282 kts | 236° |
| 2026-04-21 10:12 | 52.23179 | 4.83640 | 3232 ft | 280 kts | 236° |
| 2026-04-21 10:12 | 52.22156 | 4.81006 | 3041 ft | 270 kts | 237° |
| 2026-04-21 10:13 | 52.21167 | 4.78466 | 2871 ft | 262 kts | 236° |
| 2026-04-21 10:13 | 52.20199 | 4.75965 | 2661 ft | 260 kts | 236° |
| 2026-04-21 10:13 | 52.19799 | 4.74925 | 2569 ft | 259 kts | 236° |